sensor_id;sensor_type;location;lat;lon;timestamp;pressure;altitude;pressure_sealevel;temperature;humidity
73910;BME280;62245;48.070;7.874;2023-06-24T08:36:32;99867.84;;;22.38;53.47
73910;BME280;62245;48.070;7.874;2023-06-24T08:38:58;99866.53;;;22.45;53.15
73910;BME280;62245;48.070;7.874;2023-06-24T08:41:24;99852.66;;;22.52;52.98
73910;BME280;62245;48.070;7.874;2023-06-24T08:43:53;99862.22;;;22.70;54.26
73910;BME280;62245;48.070;7.874;2023-06-24T08:46:23;99859.03;;;22.88;53.47
73910;BME280;62245;48.070;7.874;2023-06-24T08:48:54;99865.31;;;23.04;53.11
73910;BME280;62245;48.070;7.874;2023-06-24T08:51:27;99862.03;;;23.22;53.33
73910;BME280;62245;48.070;7.874;2023-06-24T08:53:55;99861.75;;;23.28;52.54
73910;BME280;62245;48.070;7.874;2023-06-24T08:56:20;99846.50;;;23.38;53.12
73910;BME280;62245;48.070;7.874;2023-06-24T08:58:45;99857.66;;;23.46;53.73
73910;BME280;62245;48.070;7.874;2023-06-24T09:01:11;99861.22;;;23.62;52.71
73910;BME280;62245;48.070;7.874;2023-06-24T09:03:36;99855.50;;;23.68;51.50
73910;BME280;62245;48.070;7.874;2023-06-24T09:06:02;99852.47;;;23.70;53.07
73910;BME280;62245;48.070;7.874;2023-06-24T09:08:27;99845.94;;;23.81;52.22
73910;BME280;62245;48.070;7.874;2023-06-24T09:10:53;99837.47;;;23.83;52.90
73910;BME280;62245;48.070;7.874;2023-06-24T09:13:33;99845.09;;;23.91;49.86
73910;BME280;62245;48.070;7.874;2023-06-24T09:16:02;99839.59;;;23.96;52.03
73910;BME280;62245;48.070;7.874;2023-06-24T09:18:36;99837.13;;;24.04;52.23
73910;BME280;62245;48.070;7.874;2023-06-24T09:21:01;99822.41;;;24.11;51.40
73910;BME280;62245;48.070;7.874;2023-06-24T09:23:27;99826.22;;;24.04;51.31
73910;BME280;62245;48.070;7.874;2023-06-24T09:25:58;99823.22;;;24.06;51.53
73910;BME280;62245;48.070;7.874;2023-06-24T09:28:27;99817.25;;;24.04;51.45
73910;BME280;62245;48.070;7.874;2023-06-24T09:31:08;99820.78;;;24.04;49.89
73910;BME280;62245;48.070;7.874;2023-06-24T09:33:33;99810.34;;;24.27;50.04
73910;BME280;62245;48.070;7.874;2023-06-24T09:36:02;99803.81;;;24.28;50.58
73910;BME280;62245;48.070;7.874;2023-06-24T09:38:34;99810.53;;;24.46;51.09
73910;BME280;62245;48.070;7.874;2023-06-24T13:07:23;99561.31;;;28.87;33.12
73910;BME280;62245;48.070;7.874;2023-06-24T13:09:49;99565.53;;;28.94;33.36
73910;BME280;62245;48.070;7.874;2023-06-24T13:12:14;99571.97;;;28.98;32.54
73910;BME280;62245;48.070;7.874;2023-06-24T13:14:39;99557.81;;;29.04;32.37
73910;BME280;62245;48.070;7.874;2023-06-24T13:17:05;99554.88;;;29.01;33.00
73910;BME280;62245;48.070;7.874;2023-06-24T13:19:30;99554.09;;;29.09;33.08
73910;BME280;62245;48.070;7.874;2023-06-24T13:21:57;99542.47;;;29.12;33.13
73910;BME280;62245;48.070;7.874;2023-06-24T13:24:23;99549.63;;;29.30;34.18
73910;BME280;62245;48.070;7.874;2023-06-24T13:26:48;99543.13;;;29.26;32.65
73910;BME280;62245;48.070;7.874;2023-06-24T13:29:13;99543.69;;;29.37;33.06
73910;BME280;62245;48.070;7.874;2023-06-24T13:31:39;99541.44;;;29.56;33.79
73910;BME280;62245;48.070;7.874;2023-06-24T13:34:05;99544.81;;;29.61;32.93
73910;BME280;62245;48.070;7.874;2023-06-24T13:36:34;99536.56;;;29.53;32.85
73910;BME280;62245;48.070;7.874;2023-06-24T13:39:02;99532.22;;;29.60;32.36
73910;BME280;62245;48.070;7.874;2023-06-24T13:41:27;99528.31;;;29.70;32.10
73910;BME280;62245;48.070;7.874;2023-06-24T13:43:56;99535.63;;;29.66;32.63
73910;BME280;62245;48.070;7.874;2023-06-24T13:46:22;99537.22;;;29.67;32.91
73910;BME280;62245;48.070;7.874;2023-06-24T13:48:48;99536.91;;;29.69;31.68
73910;BME280;62245;48.070;7.874;2023-06-24T13:51:14;99526.88;;;29.64;32.07
73910;BME280;62245;48.070;7.874;2023-06-24T13:53:40;99528.66;;;29.60;30.90
73910;BME280;62245;48.070;7.874;2023-06-24T13:56:05;99523.47;;;29.50;31.86
73910;BME280;62245;48.070;7.874;2023-06-24T13:58:30;99525.56;;;29.53;31.64
73910;BME280;62245;48.070;7.874;2023-06-24T14:00:56;99522.81;;;29.53;32.94
73910;BME280;62245;48.070;7.874;2023-06-24T14:03:21;99519.28;;;29.61;31.92
73910;BME280;62245;48.070;7.874;2023-06-24T14:05:46;99518.31;;;29.40;30.38
73910;BME280;62245;48.070;7.874;2023-06-24T14:08:11;99522.34;;;29.51;31.44
73910;BME280;62245;48.070;7.874;2023-06-24T14:10:37;99516.84;;;29.59;31.73
